createdAt,value
2024-01-29T00:00:25.539Z,6.80
2024-01-29T00:02:53.855Z,7.00
2024-01-29T00:04:40.634Z,7.40
2024-01-29T00:06:29.325Z,7.20
2024-01-29T00:08:16.015Z,6.70
2024-01-29T00:10:00.899Z,7.70
2024-01-29T00:11:48.339Z,6.50
2024-01-29T00:13:32.896Z,6.50
2024-01-29T00:15:23.683Z,6.60
2024-01-29T00:17:08.639Z,7.80
2024-01-29T00:18:59.363Z,7.30
2024-01-29T00:20:44.185Z,7.20
2024-01-29T00:22:30.834Z,8.40
2024-01-29T00:24:18.250Z,7.80
2024-01-29T00:26:04.163Z,7.20
2024-01-29T00:27:52.870Z,7.30
2024-01-29T00:29:37.585Z,7.20
2024-01-29T00:31:23.651Z,7.40
2024-01-29T00:33:10.007Z,7.10
2024-01-29T00:34:55.266Z,8.00
2024-01-29T00:36:43.467Z,7.70
2024-01-29T00:38:33.153Z,7.70
2024-01-29T00:40:18.933Z,7.40
2024-01-29T00:42:07.833Z,7.60
2024-01-29T00:43:53.249Z,8.10
2024-01-29T00:45:41.151Z,7.90
2024-01-29T00:47:27.230Z,7.60
2024-01-29T00:49:19.686Z,7.70
2024-01-29T00:51:09.393Z,7.20
2024-01-29T00:52:55.398Z,7.40
2024-01-29T00:54:45.989Z,8.30
2024-01-29T00:56:33.754Z,7.50
2024-01-29T00:58:21.252Z,7.80
2024-01-29T01:00:11.965Z,8.00
2024-01-29T01:02:04.979Z,7.60
2024-01-29T01:05:40.809Z,7.50
2024-01-29T01:07:30.317Z,7.30
2024-01-29T01:09:21.488Z,7.70
2024-01-29T01:11:09.107Z,7.30
2024-01-29T01:12:56.648Z,6.70
2024-01-29T01:14:50.259Z,7.40
2024-01-29T01:16:44.692Z,7.20
2024-01-29T01:18:34.493Z,7.30
2024-01-29T01:20:26.534Z,7.70
2024-01-29T01:22:15.993Z,6.90
2024-01-29T01:24:05.872Z,7.80
2024-01-29T01:25:54.152Z,6.40
2024-01-29T01:27:45.233Z,7.50
2024-01-29T01:29:37.497Z,7.20
2024-01-29T01:31:31.958Z,6.40
2024-01-29T01:33:21.776Z,7.70
2024-01-29T01:35:10.571Z,6.90
2024-01-29T01:36:59.917Z,7.50
2024-01-29T01:38:51.272Z,7.10
2024-01-29T01:40:40.565Z,7.50
2024-01-29T01:42:30.412Z,7.00
2024-01-29T01:44:22.568Z,7.00
2024-01-29T01:46:23.262Z,7.10
2024-01-29T01:48:09.955Z,7.10
2024-01-29T01:50:00.481Z,6.80
2024-01-29T01:51:47.520Z,7.20
2024-01-29T01:53:48.013Z,6.40
2024-01-29T01:55:40.534Z,7.20
2024-01-29T01:57:32.074Z,6.50
2024-01-29T01:59:23.252Z,6.60
2024-01-29T02:01:14.099Z,6.70
2024-01-29T02:03:04.313Z,6.90
2024-01-29T02:04:53.764Z,7.00
2024-01-29T02:06:43.809Z,7.20
2024-01-29T02:08:38.810Z,7.40
2024-01-29T02:10:28.402Z,7.00
2024-01-29T02:12:15.807Z,7.90
2024-01-29T02:14:02.159Z,7.20
2024-01-29T02:15:52.410Z,6.50
2024-01-29T02:17:37.285Z,6.50
2024-01-29T02:19:25.228Z,7.10
2024-01-29T02:21:15.489Z,7.40
2024-01-29T02:23:00.236Z,7.00
2024-01-29T02:24:49.065Z,7.00
2024-01-29T02:26:38.111Z,6.80
2024-01-29T02:28:27.263Z,6.80
2024-01-29T02:30:14.687Z,7.30
2024-01-29T02:31:59.475Z,6.40
2024-01-29T02:33:48.966Z,7.00
2024-01-29T02:35:38.124Z,6.40
2024-01-29T02:37:29.017Z,6.50
2024-01-29T02:39:18.605Z,6.30
2024-01-29T02:41:07.987Z,5.90
2024-01-29T02:42:52.658Z,6.30
2024-01-29T02:44:39.102Z,7.00
2024-01-29T02:46:32.388Z,6.20
2024-01-29T02:48:18.356Z,6.50
2024-01-29T02:50:07.825Z,6.50
2024-01-29T02:52:02.761Z,5.90
2024-01-29T02:53:51.177Z,6.80
2024-01-29T02:55:40.196Z,6.50
2024-01-29T02:57:27.491Z,6.10
2024-01-29T02:59:14.112Z,6.00
2024-01-29T03:01:07.156Z,6.40
2024-01-29T03:02:53.268Z,6.10
2024-01-29T03:04:38.554Z,6.00
2024-01-29T03:06:27.546Z,6.30
2024-01-29T03:08:21.398Z,6.20
2024-01-29T03:10:10.451Z,5.80
2024-01-29T03:11:55.120Z,6.50
2024-01-29T03:13:45.174Z,7.50
2024-01-29T03:15:37.909Z,5.90
2024-01-29T03:17:31.786Z,6.40
2024-01-29T03:19:22.244Z,6.10
2024-01-29T03:21:16.014Z,6.20
2024-01-29T03:23:00.604Z,6.00
2024-01-29T03:24:47.897Z,6.50
2024-01-29T03:26:37.412Z,6.10
2024-01-29T03:28:26.752Z,5.90
2024-01-29T03:30:14.188Z,6.00
2024-01-29T03:32:06.646Z,6.00
2024-01-29T03:33:59.019Z,6.30
2024-01-29T03:35:53.956Z,5.80
2024-01-29T03:37:42.507Z,6.40
2024-01-29T03:39:29.709Z,5.60
2024-01-29T03:41:22.526Z,6.30
2024-01-29T03:43:12.156Z,6.10
2024-01-29T03:45:02.180Z,6.10
2024-01-29T03:46:48.308Z,6.20
2024-01-29T03:48:33.838Z,6.20
2024-01-29T03:50:21.994Z,5.90
2024-01-29T03:52:07.151Z,6.20
2024-01-29T03:53:59.187Z,6.40
2024-01-29T03:55:49.473Z,6.00
2024-01-29T03:57:35.723Z,6.10
2024-01-29T03:59:26.832Z,6.00
2024-01-29T04:01:13.172Z,6.60
2024-01-29T04:03:02.210Z,5.90
2024-01-29T04:04:53.609Z,5.50
2024-01-29T04:06:41.214Z,6.90
2024-01-29T04:08:31.218Z,6.30
2024-01-29T04:10:18.368Z,6.20
2024-01-29T04:12:10.942Z,6.90
2024-01-29T04:13:56.663Z,6.00
2024-01-29T04:15:46.436Z,7.30
2024-01-29T04:17:36.335Z,6.10
2024-01-29T04:19:24.683Z,6.60
2024-01-29T04:21:10.841Z,6.10
2024-01-29T04:22:58.753Z,6.50
2024-01-29T04:24:47.552Z,6.10
2024-01-29T04:26:36.366Z,5.60
2024-01-29T04:28:21.127Z,5.90
2024-01-29T04:30:07.238Z,6.60
2024-01-29T04:31:54.480Z,6.30
2024-01-29T04:33:48.177Z,6.00
2024-01-29T04:35:35.420Z,6.00
2024-01-29T04:37:21.167Z,6.60
2024-01-29T04:39:08.464Z,6.70
2024-01-29T04:40:55.161Z,6.50
2024-01-29T04:42:42.451Z,6.30
2024-01-29T04:44:27.547Z,6.50
2024-01-29T04:46:12.605Z,7.10
2024-01-29T04:48:02.707Z,6.80
2024-01-29T04:49:48.787Z,6.10
2024-01-29T04:51:41.722Z,6.30
2024-01-29T04:53:32.439Z,6.10
2024-01-29T04:55:19.085Z,5.80
2024-01-29T04:57:08.203Z,5.70
2024-01-29T04:58:53.011Z,6.20
2024-01-29T05:00:37.678Z,5.90
2024-01-29T05:02:22.340Z,7.10
2024-01-29T05:04:07.619Z,6.20
2024-01-29T05:05:52.624Z,6.70
2024-01-29T05:07:43.018Z,6.80
2024-01-29T05:09:36.497Z,6.00
2024-01-29T05:11:25.438Z,6.10
2024-01-29T05:13:19.045Z,6.20
2024-01-29T05:15:07.534Z,6.50
2024-01-29T05:16:54.412Z,6.60
2024-01-29T05:18:45.686Z,6.40
2024-01-29T05:20:33.369Z,6.20
2024-01-29T05:22:25.442Z,6.80
2024-01-29T05:24:14.998Z,6.70
2024-01-29T05:26:01.248Z,5.60
2024-01-29T05:27:56.369Z,5.80
2024-01-29T05:29:41.256Z,6.30
2024-01-29T05:31:26.130Z,5.90
2024-01-29T05:33:25.065Z,6.00
2024-01-29T05:35:13.938Z,6.10
2024-01-29T05:36:58.771Z,6.20
2024-01-29T05:38:43.717Z,5.80
2024-01-29T05:40:33.416Z,6.60
2024-01-29T05:42:18.349Z,5.60
2024-01-29T05:44:03.721Z,5.80
2024-01-29T05:45:54.556Z,6.10
2024-01-29T05:47:49.925Z,5.70
2024-01-29T05:49:43.786Z,6.60
2024-01-29T05:51:32.417Z,6.60
2024-01-29T05:53:23.524Z,6.20
2024-01-29T05:55:10.614Z,6.70
2024-01-29T05:57:02.204Z,5.80
2024-01-29T05:58:50.456Z,6.00
2024-01-29T06:00:41.205Z,6.20
2024-01-29T06:02:30.641Z,5.50
2024-01-29T06:04:17.362Z,6.00
2024-01-29T06:06:08.516Z,5.70
2024-01-29T06:07:55.571Z,5.90
2024-01-29T06:09:45.189Z,6.40
2024-01-29T06:11:36.351Z,6.60
2024-01-29T06:13:22.776Z,6.50
2024-01-29T06:15:09.000Z,5.30
2024-01-29T06:16:57.617Z,5.60
2024-01-29T06:18:46.547Z,5.50
2024-01-29T06:20:37.443Z,6.30
2024-01-29T06:22:26.075Z,7.50
2024-01-29T06:24:11.222Z,6.00
2024-01-29T06:26:01.290Z,5.80
2024-01-29T06:27:55.192Z,5.10
2024-01-29T06:29:46.411Z,6.60
2024-01-29T06:31:33.417Z,6.60
2024-01-29T06:33:22.627Z,6.30
2024-01-29T06:35:09.526Z,6.80
2024-01-29T06:36:57.254Z,6.00
2024-01-29T06:38:43.450Z,5.70
2024-01-29T06:40:32.299Z,6.10
2024-01-29T06:42:23.342Z,5.90
2024-01-29T06:44:09.401Z,6.40
2024-01-29T06:46:02.725Z,5.20
2024-01-29T06:47:48.669Z,5.60
2024-01-29T06:49:38.589Z,5.00
2024-01-29T06:51:28.621Z,5.80
2024-01-29T06:53:16.092Z,5.90
2024-01-29T06:55:04.656Z,6.20
2024-01-29T06:56:52.008Z,5.70
2024-01-29T06:58:42.292Z,6.40
2024-01-29T07:00:27.838Z,5.30
2024-01-29T07:02:13.023Z,5.70
2024-01-29T07:04:06.445Z,5.40
2024-01-29T07:05:56.005Z,5.70
2024-01-29T07:07:49.587Z,5.90
2024-01-29T07:09:42.851Z,6.00
2024-01-29T07:11:46.831Z,5.70
2024-01-29T07:13:32.455Z,5.60
2024-01-29T07:15:20.094Z,5.90
2024-01-29T07:17:07.140Z,6.50
2024-01-29T07:18:55.071Z,5.70
2024-01-29T07:20:45.005Z,6.30
2024-01-29T07:22:41.695Z,5.70
2024-01-29T07:24:29.879Z,6.20
2024-01-29T07:26:19.410Z,6.00
2024-01-29T07:28:05.449Z,5.60
2024-01-29T07:29:55.146Z,6.10
2024-01-29T07:31:39.992Z,5.30
2024-01-29T07:33:24.681Z,7.10
2024-01-29T07:35:12.089Z,5.30
2024-01-29T07:37:00.907Z,5.70
2024-01-29T07:38:49.214Z,4.80
2024-01-29T07:40:34.352Z,5.10
2024-01-29T07:42:19.036Z,6.30
2024-01-29T07:44:03.452Z,6.30
2024-01-29T07:45:48.032Z,6.30
2024-01-29T07:47:32.714Z,6.50
2024-01-29T07:49:17.257Z,5.40
2024-01-29T07:51:02.352Z,5.30
2024-01-29T07:52:46.967Z,5.70
2024-01-29T07:54:37.243Z,5.60
2024-01-29T07:56:24.543Z,5.60
2024-01-29T07:58:10.033Z,6.10
2024-01-29T07:59:58.448Z,5.50
2024-01-29T08:01:46.046Z,5.60
2024-01-29T08:03:30.933Z,6.10
2024-01-29T08:05:20.891Z,6.20
2024-01-29T08:07:09.013Z,5.40
2024-01-29T08:08:59.134Z,6.20
2024-01-29T08:10:47.631Z,5.10
2024-01-29T08:12:40.885Z,5.20
2024-01-29T08:16:13.541Z,5.30
2024-01-29T08:17:58.164Z,5.10
2024-01-29T08:19:49.195Z,6.00
2024-01-29T08:21:36.533Z,5.10
2024-01-29T08:23:28.033Z,5.80
2024-01-29T08:25:13.297Z,5.30
2024-01-29T08:27:01.671Z,5.10
2024-01-29T08:28:46.694Z,5.10
2024-01-29T08:30:36.505Z,5.30
2024-01-29T08:32:26.262Z,5.30
2024-01-29T08:34:15.646Z,5.20
2024-01-29T08:36:03.020Z,5.30
2024-01-29T08:37:48.719Z,5.00
2024-01-29T08:39:37.023Z,5.30
2024-01-29T08:41:27.088Z,5.10
2024-01-29T08:43:13.425Z,5.30
2024-01-29T08:44:58.466Z,6.20
2024-01-29T08:46:45.507Z,5.10
2024-01-29T08:48:32.078Z,5.30
2024-01-29T08:50:17.040Z,4.70
2024-01-29T08:52:06.335Z,5.80
2024-01-29T08:53:51.472Z,5.00
2024-01-29T08:55:36.705Z,5.10
2024-01-29T08:57:22.439Z,4.80
2024-01-29T08:59:08.742Z,5.30
2024-01-29T09:00:55.658Z,4.90
2024-01-29T09:02:40.394Z,5.10
2024-01-29T09:04:24.843Z,5.20
2024-01-29T09:06:10.509Z,5.30
2024-01-29T09:08:09.923Z,5.50
2024-01-29T09:10:02.176Z,5.10
2024-01-29T09:11:50.465Z,6.00
2024-01-29T09:13:39.308Z,5.00
2024-01-29T09:15:24.152Z,5.00
2024-01-29T09:17:10.250Z,6.20
2024-01-29T09:18:54.711Z,5.50
2024-01-29T09:20:39.401Z,5.40
2024-01-29T09:22:23.808Z,5.50
2024-01-29T09:24:09.908Z,5.30
2024-01-29T09:25:54.630Z,5.30
2024-01-29T09:27:39.424Z,5.30
2024-01-29T09:29:29.105Z,4.80
2024-01-29T09:31:16.336Z,5.30
2024-01-29T09:33:07.405Z,5.00
2024-01-29T09:35:00.238Z,5.60
2024-01-29T09:36:47.170Z,5.70
2024-01-29T09:38:32.915Z,5.50
2024-01-29T09:40:18.266Z,5.40
2024-01-29T09:42:07.908Z,6.00
2024-01-29T09:43:56.962Z,5.20
2024-01-29T09:45:43.071Z,5.30
2024-01-29T09:47:32.365Z,5.10
2024-01-29T09:49:18.898Z,5.90
2024-01-29T09:51:06.597Z,6.00
2024-01-29T09:52:54.162Z,6.10
2024-01-29T09:54:40.567Z,4.80
2024-01-29T09:56:25.104Z,5.00
2024-01-29T09:58:10.160Z,5.10
2024-01-29T09:59:55.686Z,5.10
2024-01-29T10:01:42.858Z,5.20
2024-01-29T10:03:33.038Z,5.10
2024-01-29T10:05:17.959Z,5.10
2024-01-29T10:07:03.639Z,5.60
2024-01-29T10:08:48.839Z,6.20
2024-01-29T10:10:35.427Z,5.90
2024-01-29T10:12:30.345Z,5.50
2024-01-29T10:14:16.806Z,5.90
2024-01-29T10:16:04.449Z,4.90
2024-01-29T10:17:50.132Z,5.30
2024-01-29T10:19:44.579Z,5.00
2024-01-29T10:21:33.221Z,5.80
2024-01-29T10:23:18.095Z,5.70
2024-01-29T10:25:07.930Z,5.70
2024-01-29T10:26:53.473Z,6.00
2024-01-29T10:28:38.002Z,5.40
2024-01-29T10:30:24.326Z,6.00
2024-01-29T10:32:11.288Z,5.60
2024-01-29T10:34:00.083Z,5.20
2024-01-29T10:35:45.316Z,5.90
2024-01-29T10:37:32.594Z,7.00
2024-01-29T10:39:19.738Z,6.70
2024-01-29T10:41:05.636Z,7.00
2024-01-29T10:42:52.625Z,6.00
2024-01-29T10:44:42.787Z,7.60
2024-01-29T10:46:34.284Z,6.60
2024-01-29T10:48:23.694Z,6.10
2024-01-29T10:50:11.916Z,7.20
2024-01-29T10:52:04.223Z,7.00
2024-01-29T10:53:54.500Z,6.40
2024-01-29T10:55:48.062Z,7.00
2024-01-29T10:57:40.318Z,6.20
2024-01-29T10:59:32.755Z,6.60
2024-01-29T11:01:21.121Z,7.20
2024-01-29T11:03:07.988Z,6.30
2024-01-29T11:04:52.964Z,6.50
2024-01-29T11:06:45.583Z,6.90
2024-01-29T11:08:36.668Z,6.80
2024-01-29T11:10:24.516Z,6.70
2024-01-29T11:12:12.606Z,6.80
2024-01-29T11:13:59.263Z,7.00
2024-01-29T11:15:43.951Z,6.40
2024-01-29T11:17:31.175Z,6.20
2024-01-29T11:19:20.899Z,5.80
2024-01-29T11:21:15.541Z,6.20
2024-01-29T11:23:03.620Z,7.20
2024-01-29T11:24:48.689Z,7.20
2024-01-29T11:26:33.390Z,6.60
2024-01-29T11:28:18.387Z,6.80
2024-01-29T11:30:14.792Z,7.00
2024-01-29T11:32:08.031Z,6.30
2024-01-29T11:33:54.219Z,6.40
2024-01-29T11:35:47.223Z,7.00
2024-01-29T11:37:34.651Z,7.00
2024-01-29T11:39:23.602Z,5.90
2024-01-29T11:41:09.142Z,6.50
2024-01-29T11:42:56.228Z,6.80
2024-01-29T11:44:42.283Z,6.30
2024-01-29T11:46:31.651Z,6.10
2024-01-29T11:48:23.504Z,7.30
2024-01-29T11:50:10.555Z,6.10
2024-01-29T11:51:56.165Z,6.20
2024-01-29T11:53:41.805Z,6.20
2024-01-29T11:55:27.794Z,5.70
2024-01-29T11:57:15.103Z,6.50
2024-01-29T11:59:10.447Z,6.80
2024-01-29T12:00:58.202Z,6.90
2024-01-29T12:02:47.771Z,6.20
2024-01-29T12:04:32.470Z,6.20
2024-01-29T12:06:18.552Z,5.80
2024-01-29T12:08:08.375Z,6.40
2024-01-29T12:09:55.401Z,6.50
2024-01-29T12:11:41.358Z,6.40
2024-01-29T12:13:26.238Z,6.20
2024-01-29T12:15:14.082Z,6.90
2024-01-29T12:16:59.239Z,6.00
2024-01-29T12:18:46.266Z,6.00
2024-01-29T12:20:31.772Z,6.60
2024-01-29T12:22:18.462Z,5.90
2024-01-29T12:24:03.881Z,6.30
2024-01-29T12:25:53.325Z,6.10
2024-01-29T12:27:41.404Z,5.80
2024-01-29T12:29:29.745Z,6.70
2024-01-29T12:31:20.842Z,6.00
2024-01-29T12:33:09.371Z,6.10
2024-01-29T12:34:55.139Z,6.60
2024-01-29T12:36:43.880Z,6.70
2024-01-29T12:38:32.774Z,6.40
2024-01-29T12:40:20.105Z,6.00
2024-01-29T12:42:06.422Z,6.60
2024-01-29T12:43:53.032Z,7.00
2024-01-29T12:45:39.224Z,6.40
2024-01-29T12:47:29.368Z,6.40
2024-01-29T12:49:14.618Z,6.30
2024-01-29T12:51:00.554Z,5.80
2024-01-29T12:52:45.456Z,6.50
2024-01-29T12:54:30.233Z,6.60
2024-01-29T12:56:14.680Z,6.30
2024-01-29T12:57:59.064Z,5.70
2024-01-29T12:59:43.673Z,6.00
2024-01-29T13:01:29.719Z,6.10
2024-01-29T13:03:15.280Z,6.20
2024-01-29T13:04:59.901Z,5.60
2024-01-29T13:06:44.607Z,5.60
2024-01-29T13:08:30.205Z,6.30
2024-01-29T13:10:16.465Z,5.80
2024-01-29T13:12:03.559Z,6.00
2024-01-29T13:13:50.261Z,5.90
2024-01-29T13:15:36.485Z,6.00
2024-01-29T13:17:21.025Z,6.20
2024-01-29T13:19:05.852Z,5.80
2024-01-29T13:20:50.411Z,6.40
2024-01-29T13:22:36.915Z,5.50
2024-01-29T13:24:21.270Z,5.60
2024-01-29T13:26:08.663Z,5.70
2024-01-29T13:27:54.813Z,6.30
2024-01-29T13:29:41.670Z,5.90
2024-01-29T13:31:26.611Z,5.90
2024-01-29T13:33:12.087Z,6.00
2024-01-29T13:34:58.593Z,5.90
2024-01-29T13:36:44.008Z,6.00
2024-01-29T13:38:28.471Z,6.30
2024-01-29T13:40:14.900Z,6.10
2024-01-29T13:41:59.639Z,5.10
2024-01-29T13:43:47.310Z,6.20
2024-01-29T13:45:36.567Z,6.10
2024-01-29T13:47:23.713Z,5.60
2024-01-29T13:49:08.539Z,5.90
2024-01-29T13:50:53.009Z,5.80
2024-01-29T13:52:37.400Z,5.90
2024-01-29T13:54:21.763Z,5.50
2024-01-29T13:56:09.533Z,5.10
2024-01-29T13:57:57.648Z,5.80
2024-01-29T13:59:43.433Z,6.10
2024-01-29T14:01:28.052Z,5.80
2024-01-29T14:03:12.743Z,5.20
2024-01-29T14:04:57.493Z,5.10
2024-01-29T14:06:43.593Z,5.90
2024-01-29T14:08:30.384Z,5.00
2024-01-29T14:10:19.348Z,5.90
2024-01-29T14:12:06.577Z,5.60
2024-01-29T14:13:51.895Z,5.30
2024-01-29T14:15:36.427Z,5.60
2024-01-29T14:17:22.361Z,5.50
2024-01-29T14:19:08.074Z,5.20
2024-01-29T14:20:56.937Z,5.70
2024-01-29T14:22:43.550Z,5.30
2024-01-29T14:24:31.980Z,5.50
2024-01-29T14:26:18.943Z,5.40
2024-01-29T14:28:06.783Z,5.10
2024-01-29T14:29:56.041Z,6.50
2024-01-29T14:31:43.803Z,5.80
2024-01-29T14:33:35.449Z,5.70
2024-01-29T14:35:24.070Z,5.40
2024-01-29T14:37:12.754Z,5.40
2024-01-29T14:38:57.592Z,5.20
2024-01-29T14:40:43.147Z,6.00
2024-01-29T14:42:27.711Z,6.10
2024-01-29T14:44:12.299Z,5.90
2024-01-29T14:45:56.960Z,6.30
2024-01-29T14:47:42.016Z,5.50
2024-01-29T14:49:27.762Z,5.80
2024-01-29T14:51:13.892Z,6.10
2024-01-29T14:53:04.846Z,5.60
2024-01-29T14:54:53.026Z,5.70
2024-01-29T14:56:40.409Z,5.70
2024-01-29T14:58:26.100Z,6.10
2024-01-29T15:00:13.825Z,6.60
2024-01-29T15:02:00.905Z,5.50
2024-01-29T15:03:46.311Z,6.00
2024-01-29T15:05:32.397Z,6.70
2024-01-29T15:07:19.783Z,6.40
2024-01-29T15:09:05.259Z,5.80
2024-01-29T15:10:54.151Z,6.10
2024-01-29T15:12:41.976Z,5.70
2024-01-29T15:14:27.699Z,5.60
2024-01-29T15:16:12.428Z,6.50
2024-01-29T15:17:59.386Z,6.20
2024-01-29T15:19:45.621Z,5.60
2024-01-29T15:21:30.615Z,5.40
2024-01-29T15:23:20.403Z,6.10
2024-01-29T15:25:06.522Z,5.70
2024-01-29T15:26:51.693Z,6.30
2024-01-29T15:28:36.225Z,5.60
2024-01-29T15:30:22.460Z,5.60
2024-01-29T15:32:08.619Z,5.90
2024-01-29T15:33:53.577Z,5.40
2024-01-29T15:35:38.272Z,5.80
2024-01-29T15:37:23.408Z,5.60
2024-01-29T15:39:13.592Z,5.80
2024-01-29T15:40:58.581Z,5.70
2024-01-29T15:42:52.102Z,5.50
2024-01-29T15:44:39.120Z,6.40
2024-01-29T15:46:24.641Z,5.20
2024-01-29T15:48:11.280Z,6.40
2024-01-29T15:49:59.647Z,5.50
2024-01-29T15:51:44.733Z,5.80
2024-01-29T15:53:29.402Z,5.40
2024-01-29T15:55:14.447Z,5.50
2024-01-29T15:56:58.950Z,5.20
2024-01-29T15:58:44.040Z,5.50
2024-01-29T16:00:34.693Z,5.70
2024-01-29T16:02:19.922Z,5.60
2024-01-29T16:04:06.994Z,5.50
2024-01-29T16:05:53.437Z,5.70
2024-01-29T16:07:39.380Z,6.70
2024-01-29T16:09:27.370Z,5.40
2024-01-29T16:11:14.575Z,5.50
2024-01-29T16:12:59.016Z,5.50
2024-01-29T16:14:43.525Z,5.50
2024-01-29T16:16:28.563Z,5.40
2024-01-29T16:18:13.480Z,5.50
2024-01-29T16:19:59.163Z,6.00
2024-01-29T16:21:45.232Z,5.40
2024-01-29T16:23:30.140Z,5.20
2024-01-29T16:25:17.895Z,5.80
2024-01-29T16:27:02.498Z,5.90
2024-01-29T16:28:48.716Z,5.90
2024-01-29T16:30:37.717Z,5.10
2024-01-29T16:32:23.916Z,6.30
2024-01-29T16:34:11.109Z,6.10
2024-01-29T16:36:02.959Z,5.60
2024-01-29T16:37:49.290Z,5.70
2024-01-29T16:40:10.808Z,6.10
2024-01-29T16:41:56.614Z,5.70
2024-01-29T16:43:41.371Z,5.20
2024-01-29T16:45:26.161Z,5.80
2024-01-29T16:47:11.382Z,6.20
2024-01-29T16:48:56.270Z,5.80
2024-01-29T16:50:41.345Z,5.20
2024-01-29T16:52:27.484Z,5.70
2024-01-29T16:54:13.790Z,6.20
2024-01-29T16:56:00.024Z,6.40
2024-01-29T16:57:46.622Z,5.80
2024-01-29T16:59:40.037Z,5.40
2024-01-29T17:01:26.141Z,5.30
2024-01-29T17:03:14.796Z,5.70
2024-01-29T17:05:10.137Z,5.60
2024-01-29T17:06:55.400Z,5.60
2024-01-29T17:08:40.681Z,6.60
2024-01-29T17:10:28.812Z,5.30
2024-01-29T17:12:16.084Z,5.50
2024-01-29T17:14:03.020Z,6.00
2024-01-29T17:15:48.408Z,5.80
2024-01-29T17:17:33.361Z,6.20
2024-01-29T17:19:18.192Z,6.00
2024-01-29T17:21:06.670Z,6.00
2024-01-29T17:22:54.254Z,5.80
2024-01-29T17:24:40.465Z,5.60
2024-01-29T17:26:25.131Z,5.90
2024-01-29T17:28:10.579Z,5.60
2024-01-29T17:29:55.306Z,5.40
2024-01-29T17:31:41.054Z,5.90
2024-01-29T17:33:27.534Z,7.20
2024-01-29T17:35:14.201Z,5.70
2024-01-29T17:37:02.750Z,6.10
2024-01-29T17:38:51.847Z,5.60
2024-01-29T17:40:36.825Z,6.10
2024-01-29T17:42:21.446Z,5.50
2024-01-29T17:44:06.140Z,5.80
2024-01-29T17:45:51.274Z,6.30
2024-01-29T17:47:37.062Z,6.10
2024-01-29T17:49:21.626Z,6.00
2024-01-29T17:51:06.718Z,6.20
2024-01-29T17:52:56.193Z,5.60
2024-01-29T17:54:44.295Z,6.40
2024-01-29T17:56:30.043Z,7.00
2024-01-29T17:58:17.879Z,6.40
2024-01-29T18:00:04.776Z,5.60
2024-01-29T18:01:53.953Z,6.60
2024-01-29T18:03:38.983Z,6.50
2024-01-29T18:05:26.604Z,6.70
2024-01-29T18:07:12.851Z,5.60
2024-01-29T18:09:02.797Z,6.50
2024-01-29T18:10:52.979Z,7.40
2024-01-29T18:12:37.717Z,6.70
2024-01-29T18:14:23.350Z,6.20
2024-01-29T18:16:09.752Z,6.20
2024-01-29T18:17:56.947Z,5.50
2024-01-29T18:19:43.356Z,6.10
2024-01-29T18:21:29.347Z,6.10
2024-01-29T18:23:14.220Z,6.30
2024-01-29T18:24:59.642Z,7.00
2024-01-29T18:26:45.725Z,7.90
2024-01-29T18:28:33.153Z,6.60
2024-01-29T18:30:19.861Z,7.70
2024-01-29T18:32:08.686Z,6.90
2024-01-29T18:33:53.488Z,7.10
2024-01-29T18:35:39.643Z,7.10
2024-01-29T18:37:23.999Z,7.90
2024-01-29T18:39:09.811Z,7.70
2024-01-29T18:40:54.251Z,6.80
2024-01-29T18:42:40.939Z,9.10
2024-01-29T18:44:28.450Z,7.40
2024-01-29T18:46:14.051Z,7.70
2024-01-29T18:47:59.690Z,7.20
2024-01-29T18:49:53.341Z,7.50
2024-01-29T18:51:42.373Z,8.20
2024-01-29T18:53:26.963Z,7.90
2024-01-29T18:55:13.562Z,7.40
2024-01-29T18:56:58.202Z,7.80
2024-01-29T18:58:45.302Z,8.50
2024-01-29T19:00:29.773Z,7.70
2024-01-29T19:02:16.700Z,9.10
2024-01-29T19:04:05.164Z,7.30
2024-01-29T19:05:54.225Z,7.60
2024-01-29T19:07:40.061Z,7.90
2024-01-29T19:09:25.813Z,7.60
2024-01-29T19:11:14.909Z,7.00
2024-01-29T19:12:59.544Z,7.20
2024-01-29T19:14:45.394Z,7.00
2024-01-29T19:16:33.225Z,7.90
2024-01-29T19:18:20.193Z,7.20
2024-01-29T19:20:05.316Z,7.40
2024-01-29T19:21:49.943Z,7.90
2024-01-29T19:23:34.663Z,7.60
2024-01-29T19:25:19.655Z,7.50
2024-01-29T19:27:04.777Z,7.20
2024-01-29T19:28:49.387Z,7.30
2024-01-29T19:30:34.279Z,7.10
2024-01-29T19:32:20.377Z,7.60
2024-01-29T19:34:06.233Z,7.60
2024-01-29T19:35:53.986Z,6.90
2024-01-29T19:37:39.057Z,8.20
2024-01-29T19:39:24.561Z,7.60
2024-01-29T19:41:13.900Z,7.70
2024-01-29T19:42:58.969Z,7.60
2024-01-29T19:44:45.956Z,6.70
2024-01-29T19:46:32.624Z,7.80
2024-01-29T19:48:18.845Z,6.70
2024-01-29T19:50:11.114Z,7.30
2024-01-29T19:51:57.443Z,7.80
2024-01-29T19:53:52.431Z,7.50
2024-01-29T19:55:43.950Z,8.30
2024-01-29T19:57:33.406Z,7.40
2024-01-29T19:59:23.647Z,7.80
2024-01-29T20:01:09.232Z,7.80
2024-01-29T20:02:55.232Z,6.80
2024-01-29T20:04:47.527Z,8.00
2024-01-29T20:06:37.345Z,8.00
2024-01-29T20:08:32.768Z,7.80
2024-01-29T20:10:19.538Z,8.10
2024-01-29T20:12:09.256Z,8.20
2024-01-29T20:13:53.891Z,7.50
2024-01-29T20:15:43.778Z,8.00
2024-01-29T20:17:35.172Z,7.80
2024-01-29T20:19:30.478Z,8.20
2024-01-29T20:21:17.202Z,9.00
2024-01-29T20:23:09.312Z,8.60
2024-01-29T20:25:00.209Z,8.70
2024-01-29T20:26:48.922Z,8.00
2024-01-29T20:29:10.648Z,8.90
2024-01-29T20:31:26.301Z,8.40
2024-01-29T20:33:12.997Z,8.10
2024-01-29T20:35:02.032Z,7.40
2024-01-29T20:36:48.666Z,7.80
2024-01-29T20:38:41.366Z,7.70
2024-01-29T20:40:35.713Z,7.60
2024-01-29T20:42:22.761Z,7.20
2024-01-29T20:44:08.647Z,7.70
2024-01-29T20:45:53.199Z,8.30
2024-01-29T20:47:40.357Z,8.10
2024-01-29T20:49:33.996Z,8.30
2024-01-29T20:51:23.447Z,7.90
2024-01-29T20:53:09.269Z,8.70
2024-01-29T20:55:07.592Z,8.50
2024-01-29T20:57:01.499Z,7.90
2024-01-29T20:58:49.316Z,8.30
2024-01-29T21:00:37.761Z,8.50
2024-01-29T21:02:29.132Z,7.80
2024-01-29T21:04:16.200Z,8.20
2024-01-29T21:06:01.108Z,8.80
2024-01-29T21:07:48.709Z,8.30
2024-01-29T21:09:37.714Z,8.20
2024-01-29T21:11:23.982Z,8.90
2024-01-29T21:13:09.032Z,8.50
2024-01-29T21:14:58.051Z,9.00
2024-01-29T21:16:42.889Z,8.30
2024-01-29T21:18:28.633Z,10.00
2024-01-29T21:20:17.907Z,9.10
2024-01-29T21:22:02.338Z,8.90
2024-01-29T21:23:49.850Z,8.90
2024-01-29T21:25:38.553Z,8.70
2024-01-29T21:27:23.119Z,9.10
2024-01-29T21:29:09.303Z,9.50
2024-01-29T21:30:54.739Z,10.00
2024-01-29T21:32:39.408Z,8.90
2024-01-29T21:34:24.042Z,8.90
2024-01-29T21:36:10.186Z,9.50
2024-01-29T21:37:55.676Z,9.90
2024-01-29T21:39:43.513Z,9.70
2024-01-29T21:41:30.511Z,8.80
2024-01-29T21:43:18.703Z,8.90
2024-01-29T21:45:04.929Z,8.80
2024-01-29T21:46:53.251Z,9.20
2024-01-29T21:48:37.933Z,9.30
2024-01-29T21:50:22.609Z,8.30
2024-01-29T21:52:08.129Z,9.50
2024-01-29T21:53:52.576Z,9.30
2024-01-29T21:55:37.576Z,10.80
2024-01-29T21:57:27.041Z,9.50
2024-01-29T21:59:14.088Z,9.50
2024-01-29T22:01:00.382Z,10.50
2024-01-29T22:02:49.866Z,10.90
2024-01-29T22:04:38.490Z,9.20
2024-01-29T22:06:28.871Z,10.30
2024-01-29T22:08:18.314Z,11.20
2024-01-29T22:10:08.306Z,9.90
2024-01-29T22:11:59.117Z,10.80
2024-01-29T22:13:47.423Z,10.30
2024-01-29T22:15:32.344Z,10.60
2024-01-29T22:17:16.890Z,11.20
2024-01-29T22:19:01.314Z,10.70
2024-01-29T22:20:45.985Z,9.70
2024-01-29T22:22:31.946Z,10.70
2024-01-29T22:24:19.175Z,11.60
2024-01-29T22:26:07.600Z,10.00
2024-01-29T22:27:55.834Z,10.40
2024-01-29T22:29:43.620Z,10.50
2024-01-29T22:31:30.649Z,10.10
2024-01-29T22:33:19.296Z,10.50
2024-01-29T22:35:06.420Z,10.30
2024-01-29T22:36:52.378Z,10.30
2024-01-29T22:38:37.492Z,10.70
2024-01-29T22:40:22.434Z,10.90
2024-01-29T22:42:09.411Z,11.00
2024-01-29T22:43:54.104Z,11.80
2024-01-29T22:45:40.396Z,10.80
2024-01-29T22:47:28.587Z,10.80
2024-01-29T22:49:17.311Z,10.80
2024-01-29T22:51:05.284Z,11.30
2024-01-29T22:53:00.614Z,11.70
2024-01-29T22:54:50.419Z,12.20
2024-01-29T22:56:42.221Z,10.50
2024-01-29T22:58:27.100Z,10.90
2024-01-29T23:00:23.978Z,11.50
2024-01-29T23:02:09.054Z,11.00
2024-01-29T23:03:53.956Z,11.80
2024-01-29T23:05:38.679Z,11.70
2024-01-29T23:07:23.315Z,10.60
2024-01-29T23:09:09.169Z,11.70
2024-01-29T23:10:56.027Z,10.10
2024-01-29T23:12:47.247Z,11.20
2024-01-29T23:14:35.454Z,10.70
2024-01-29T23:16:23.674Z,10.70
2024-01-29T23:18:10.691Z,11.30
2024-01-29T23:19:56.715Z,12.10
2024-01-29T23:21:42.919Z,12.40
2024-01-29T23:23:31.736Z,11.90
2024-01-29T23:25:18.644Z,10.90
2024-01-29T23:27:08.125Z,11.50
2024-01-29T23:28:53.287Z,10.90
2024-01-29T23:30:38.303Z,10.40
2024-01-29T23:32:23.351Z,11.00
2024-01-29T23:34:08.176Z,10.40
2024-01-29T23:35:53.191Z,10.30
2024-01-29T23:37:37.930Z,11.20
2024-01-29T23:39:22.697Z,11.70
2024-01-29T23:41:10.530Z,10.50
2024-01-29T23:43:00.205Z,10.70
2024-01-29T23:44:47.936Z,11.30
2024-01-29T23:46:35.033Z,11.00
2024-01-29T23:48:20.749Z,10.80
2024-01-29T23:50:09.254Z,10.90
2024-01-29T23:51:54.409Z,11.00
2024-01-29T23:53:39.315Z,12.00
2024-01-29T23:55:25.027Z,10.90